sensor_id;sensor_type;location;lat;lon;timestamp;P1;durP1;ratioP1;P2;durP2;ratioP2
3979;SDS011;2004;52.452;13.120;2022-07-23T00:05:18;6.23;;;4.87;;
3979;SDS011;2004;52.452;13.120;2022-07-23T00:13:09;7.03;;;6.33;;
3979;SDS011;2004;52.452;13.120;2022-07-23T00:21:00;14.93;;;7.77;;
3979;SDS011;2004;52.452;13.120;2022-07-23T00:28:50;7.53;;;5.30;;
3979;SDS011;2004;52.452;13.120;2022-07-23T00:36:41;5.70;;;5.13;;
3979;SDS011;2004;52.452;13.120;2022-07-23T00:44:31;7.47;;;6.20;;
3979;SDS011;2004;52.452;13.120;2022-07-23T00:52:22;7.50;;;6.40;;
3979;SDS011;2004;52.452;13.120;2022-07-23T01:00:13;10.97;;;6.83;;
3979;SDS011;2004;52.452;13.120;2022-07-23T01:08:05;9.23;;;7.17;;
3979;SDS011;2004;52.452;13.120;2022-07-23T01:15:56;12.60;;;6.83;;
3979;SDS011;2004;52.452;13.120;2022-07-23T01:23:47;10.57;;;7.90;;
3979;SDS011;2004;52.452;13.120;2022-07-23T01:31:37;10.73;;;5.80;;
3979;SDS011;2004;52.452;13.120;2022-07-23T01:39:28;7.70;;;6.80;;
3979;SDS011;2004;52.452;13.120;2022-07-23T01:47:19;16.37;;;6.00;;
3979;SDS011;2004;52.452;13.120;2022-07-23T01:55:10;9.40;;;6.20;;
3979;SDS011;2004;52.452;13.120;2022-07-23T02:03:00;12.43;;;6.83;;
3979;SDS011;2004;52.452;13.120;2022-07-23T02:10:51;10.23;;;6.80;;
3979;SDS011;2004;52.452;13.120;2022-07-23T02:18:41;12.33;;;6.40;;
3979;SDS011;2004;52.452;13.120;2022-07-23T02:26:32;12.43;;;6.90;;
3979;SDS011;2004;52.452;13.120;2022-07-23T02:34:24;16.57;;;7.00;;
3979;SDS011;2004;52.452;13.120;2022-07-23T02:42:15;7.07;;;6.00;;
3979;SDS011;2004;52.452;13.120;2022-07-23T02:50:05;8.43;;;5.97;;
3979;SDS011;2004;52.452;13.120;2022-07-23T02:57:57;14.30;;;6.33;;
3979;SDS011;2004;52.452;13.120;2022-07-23T03:05:47;12.00;;;6.03;;
3979;SDS011;2004;52.452;13.120;2022-07-23T03:13:38;9.37;;;5.60;;
3979;SDS011;2004;52.452;13.120;2022-07-23T03:21:29;13.50;;;6.00;;
3979;SDS011;2004;52.452;13.120;2022-07-23T03:29:20;8.23;;;4.87;;
3979;SDS011;2004;52.452;13.120;2022-07-23T03:37:11;12.57;;;4.67;;
3979;SDS011;2004;52.452;13.120;2022-07-23T03:45:01;11.57;;;4.90;;
3979;SDS011;2004;52.452;13.120;2022-07-23T03:52:53;7.33;;;4.10;;
3979;SDS011;2004;52.452;13.120;2022-07-23T04:00:44;8.43;;;3.87;;
3979;SDS011;2004;52.452;13.120;2022-07-23T04:08:34;8.20;;;4.47;;
3979;SDS011;2004;52.452;13.120;2022-07-23T04:16:25;6.77;;;4.10;;
3979;SDS011;2004;52.452;13.120;2022-07-23T04:24:15;14.03;;;4.90;;
3979;SDS011;2004;52.452;13.120;2022-07-23T04:32:06;6.80;;;5.00;;
3979;SDS011;2004;52.452;13.120;2022-07-23T04:39:56;11.43;;;5.47;;
3979;SDS011;2004;52.452;13.120;2022-07-23T04:47:47;12.57;;;5.63;;
3979;SDS011;2004;52.452;13.120;2022-07-23T04:55:37;14.20;;;5.13;;
3979;SDS011;2004;52.452;13.120;2022-07-23T05:03:28;14.33;;;5.70;;
3979;SDS011;2004;52.452;13.120;2022-07-23T05:11:18;6.53;;;5.60;;
3979;SDS011;2004;52.452;13.120;2022-07-23T05:19:09;11.97;;;5.73;;
3979;SDS011;2004;52.452;13.120;2022-07-23T05:26:59;13.83;;;5.50;;
3979;SDS011;2004;52.452;13.120;2022-07-23T05:34:50;10.57;;;5.40;;
3979;SDS011;2004;52.452;13.120;2022-07-23T05:42:40;10.40;;;5.17;;
3979;SDS011;2004;52.452;13.120;2022-07-23T05:50:32;7.67;;;4.97;;
3979;SDS011;2004;52.452;13.120;2022-07-23T05:58:22;8.23;;;4.83;;
3979;SDS011;2004;52.452;13.120;2022-07-23T06:06:13;6.50;;;4.67;;
3979;SDS011;2004;52.452;13.120;2022-07-23T06:14:03;8.80;;;5.00;;
3979;SDS011;2004;52.452;13.120;2022-07-23T06:21:54;9.60;;;4.90;;
3979;SDS011;2004;52.452;13.120;2022-07-23T06:29:44;12.37;;;5.50;;
3979;SDS011;2004;52.452;13.120;2022-07-23T06:37:35;9.73;;;6.27;;
3979;SDS011;2004;52.452;13.120;2022-07-23T06:45:26;12.03;;;6.40;;
3979;SDS011;2004;52.452;13.120;2022-07-23T06:53:16;14.77;;;6.10;;
3979;SDS011;2004;52.452;13.120;2022-07-23T07:01:07;5.77;;;4.60;;
3979;SDS011;2004;52.452;13.120;2022-07-23T07:08:58;10.67;;;5.83;;
3979;SDS011;2004;52.452;13.120;2022-07-23T07:16:48;7.63;;;5.07;;
3979;SDS011;2004;52.452;13.120;2022-07-23T07:24:39;10.40;;;6.97;;
3979;SDS011;2004;52.452;13.120;2022-07-23T07:32:29;12.00;;;5.80;;
3979;SDS011;2004;52.452;13.120;2022-07-23T07:40:22;5.67;;;5.17;;
3979;SDS011;2004;52.452;13.120;2022-07-23T07:48:12;13.60;;;7.20;;
3979;SDS011;2004;52.452;13.120;2022-07-23T07:56:03;15.30;;;7.60;;
3979;SDS011;2004;52.452;13.120;2022-07-23T08:03:54;13.97;;;6.60;;
3979;SDS011;2004;52.452;13.120;2022-07-23T08:11:44;10.50;;;6.20;;
3979;SDS011;2004;52.452;13.120;2022-07-23T08:19:35;14.63;;;6.87;;
3979;SDS011;2004;52.452;13.120;2022-07-23T08:27:25;17.20;;;8.03;;
3979;SDS011;2004;52.452;13.120;2022-07-23T08:35:16;11.53;;;6.90;;
3979;SDS011;2004;52.452;13.120;2022-07-23T08:43:08;11.37;;;7.00;;
3979;SDS011;2004;52.452;13.120;2022-07-23T08:51:02;14.00;;;6.60;;
3979;SDS011;2004;52.452;13.120;2022-07-23T08:58:54;15.03;;;6.53;;
3979;SDS011;2004;52.452;13.120;2022-07-23T09:06:44;14.40;;;5.70;;
3979;SDS011;2004;52.452;13.120;2022-07-23T09:14:39;15.80;;;7.10;;
3979;SDS011;2004;52.452;13.120;2022-07-23T09:22:36;8.10;;;5.90;;
3979;SDS011;2004;52.452;13.120;2022-07-23T09:30:28;8.77;;;5.17;;
3979;SDS011;2004;52.452;13.120;2022-07-23T09:38:21;16.37;;;5.80;;
3979;SDS011;2004;52.452;13.120;2022-07-23T09:46:21;9.20;;;5.00;;
3979;SDS011;2004;52.452;13.120;2022-07-23T09:54:20;11.63;;;5.97;;
3979;SDS011;2004;52.452;13.120;2022-07-23T10:02:13;19.97;;;6.10;;
3979;SDS011;2004;52.452;13.120;2022-07-23T10:10:05;8.97;;;5.40;;
3979;SDS011;2004;52.452;13.120;2022-07-23T10:17:56;12.43;;;5.17;;
3979;SDS011;2004;52.452;13.120;2022-07-23T10:42:18;14.63;;;5.77;;
3979;SDS011;2004;52.452;13.120;2022-07-23T10:50:23;9.37;;;4.10;;
3979;SDS011;2004;52.452;13.120;2022-07-23T10:58:18;6.40;;;4.47;;
3979;SDS011;2004;52.452;13.120;2022-07-23T11:06:13;10.47;;;4.00;;
3979;SDS011;2004;52.452;13.120;2022-07-23T11:14:04;8.23;;;3.60;;
3979;SDS011;2004;52.452;13.120;2022-07-23T11:21:54;9.27;;;4.13;;
3979;SDS011;2004;52.452;13.120;2022-07-23T11:29:47;13.63;;;4.13;;
3979;SDS011;2004;52.452;13.120;2022-07-23T11:37:39;8.33;;;4.33;;
3979;SDS011;2004;52.452;13.120;2022-07-23T11:45:34;5.70;;;3.80;;
3979;SDS011;2004;52.452;13.120;2022-07-23T11:53:30;5.50;;;4.00;;
3979;SDS011;2004;52.452;13.120;2022-07-23T12:01:23;6.47;;;4.20;;
3979;SDS011;2004;52.452;13.120;2022-07-23T12:09:13;6.47;;;3.90;;
3979;SDS011;2004;52.452;13.120;2022-07-23T12:17:10;4.43;;;3.73;;
3979;SDS011;2004;52.452;13.120;2022-07-23T12:25:03;7.57;;;3.87;;
3979;SDS011;2004;52.452;13.120;2022-07-23T12:32:56;5.50;;;4.20;;
3979;SDS011;2004;52.452;13.120;2022-07-23T12:56:40;6.73;;;4.00;;
3979;SDS011;2004;52.452;13.120;2022-07-23T13:04:34;6.30;;;3.80;;
3979;SDS011;2004;52.452;13.120;2022-07-23T13:12:24;5.00;;;3.93;;
3979;SDS011;2004;52.452;13.120;2022-07-23T13:20:15;4.10;;;3.70;;
3979;SDS011;2004;52.452;13.120;2022-07-23T13:28:05;3.93;;;2.57;;
3979;SDS011;2004;52.452;13.120;2022-07-23T13:35:56;9.27;;;3.20;;
3979;SDS011;2004;52.452;13.120;2022-07-23T13:43:47;5.27;;;2.57;;
3979;SDS011;2004;52.452;13.120;2022-07-23T13:51:37;3.07;;;2.37;;
3979;SDS011;2004;52.452;13.120;2022-07-23T13:59:28;6.10;;;2.13;;
3979;SDS011;2004;52.452;13.120;2022-07-23T14:07:19;7.10;;;2.53;;
3979;SDS011;2004;52.452;13.120;2022-07-23T14:15:10;3.50;;;2.47;;
3979;SDS011;2004;52.452;13.120;2022-07-23T14:23:01;5.23;;;1.90;;
3979;SDS011;2004;52.452;13.120;2022-07-23T14:30:52;4.53;;;2.37;;
3979;SDS011;2004;52.452;13.120;2022-07-23T14:38:42;3.87;;;1.83;;
3979;SDS011;2004;52.452;13.120;2022-07-23T14:46:33;2.57;;;1.70;;
3979;SDS011;2004;52.452;13.120;2022-07-23T14:54:24;4.03;;;1.83;;
3979;SDS011;2004;52.452;13.120;2022-07-23T15:02:16;6.63;;;2.00;;
3979;SDS011;2004;52.452;13.120;2022-07-23T15:10:06;5.27;;;2.17;;
3979;SDS011;2004;52.452;13.120;2022-07-23T15:17:57;3.67;;;1.80;;
3979;SDS011;2004;52.452;13.120;2022-07-23T15:25:48;3.40;;;1.60;;
3979;SDS011;2004;52.452;13.120;2022-07-23T15:33:39;1.97;;;1.30;;
3979;SDS011;2004;52.452;13.120;2022-07-23T15:41:30;3.80;;;1.57;;
3979;SDS011;2004;52.452;13.120;2022-07-23T15:49:20;1.67;;;1.40;;
3979;SDS011;2004;52.452;13.120;2022-07-23T15:57:11;4.50;;;1.73;;
3979;SDS011;2004;52.452;13.120;2022-07-23T16:05:02;4.70;;;2.17;;
3979;SDS011;2004;52.452;13.120;2022-07-23T16:12:53;3.77;;;1.43;;
3979;SDS011;2004;52.452;13.120;2022-07-23T16:20:44;3.33;;;1.90;;
3979;SDS011;2004;52.452;13.120;2022-07-23T16:28:34;3.47;;;1.33;;
3979;SDS011;2004;52.452;13.120;2022-07-23T16:36:25;2.00;;;1.40;;
3979;SDS011;2004;52.452;13.120;2022-07-23T16:44:16;2.60;;;1.20;;
3979;SDS011;2004;52.452;13.120;2022-07-23T16:52:07;3.20;;;1.73;;
3979;SDS011;2004;52.452;13.120;2022-07-23T16:59:57;4.77;;;1.37;;
3979;SDS011;2004;52.452;13.120;2022-07-23T17:07:49;3.77;;;1.97;;
3979;SDS011;2004;52.452;13.120;2022-07-23T17:15:40;2.23;;;1.53;;
3979;SDS011;2004;52.452;13.120;2022-07-23T17:23:30;2.37;;;1.73;;
3979;SDS011;2004;52.452;13.120;2022-07-23T17:31:21;1.63;;;1.53;;
3979;SDS011;2004;52.452;13.120;2022-07-23T17:39:11;3.17;;;1.03;;
3979;SDS011;2004;52.452;13.120;2022-07-23T17:47:03;4.10;;;1.30;;
3979;SDS011;2004;52.452;13.120;2022-07-23T17:54:53;3.73;;;1.00;;
3979;SDS011;2004;52.452;13.120;2022-07-23T18:02:44;3.63;;;1.20;;
3979;SDS011;2004;52.452;13.120;2022-07-23T18:10:35;3.03;;;1.17;;
3979;SDS011;2004;52.452;13.120;2022-07-23T18:18:26;1.90;;;1.50;;
3979;SDS011;2004;52.452;13.120;2022-07-23T18:26:18;6.00;;;1.00;;
3979;SDS011;2004;52.452;13.120;2022-07-23T18:34:09;3.30;;;1.10;;
3979;SDS011;2004;52.452;13.120;2022-07-23T18:42:00;3.73;;;1.00;;
3979;SDS011;2004;52.452;13.120;2022-07-23T18:49:56;1.10;;;0.97;;
3979;SDS011;2004;52.452;13.120;2022-07-23T18:58:12;2.03;;;0.80;;
3979;SDS011;2004;52.452;13.120;2022-07-23T19:06:22;1.27;;;0.90;;
3979;SDS011;2004;52.452;13.120;2022-07-23T19:14:16;1.47;;;0.83;;
3979;SDS011;2004;52.452;13.120;2022-07-23T19:22:06;4.40;;;1.00;;
3979;SDS011;2004;52.452;13.120;2022-07-23T19:29:58;1.30;;;0.80;;
3979;SDS011;2004;52.452;13.120;2022-07-23T19:37:49;1.87;;;1.00;;
3979;SDS011;2004;52.452;13.120;2022-07-23T19:45:39;1.90;;;1.20;;
3979;SDS011;2004;52.452;13.120;2022-07-23T19:53:30;2.10;;;1.23;;
3979;SDS011;2004;52.452;13.120;2022-07-23T20:01:21;0.83;;;0.83;;
3979;SDS011;2004;52.452;13.120;2022-07-23T20:09:12;2.00;;;1.10;;
3979;SDS011;2004;52.452;13.120;2022-07-23T20:17:02;0.80;;;0.80;;
3979;SDS011;2004;52.452;13.120;2022-07-23T20:24:54;1.70;;;1.00;;
3979;SDS011;2004;52.452;13.120;2022-07-23T20:32:44;1.73;;;1.07;;
3979;SDS011;2004;52.452;13.120;2022-07-23T20:40:36;1.03;;;0.93;;
3979;SDS011;2004;52.452;13.120;2022-07-23T20:48:27;9.67;;;1.03;;
3979;SDS011;2004;52.452;13.120;2022-07-23T20:56:18;2.13;;;1.37;;
3979;SDS011;2004;52.452;13.120;2022-07-23T21:04:09;3.83;;;1.10;;
3979;SDS011;2004;52.452;13.120;2022-07-23T21:11:59;3.07;;;1.00;;
3979;SDS011;2004;52.452;13.120;2022-07-23T21:19:50;2.30;;;1.77;;
3979;SDS011;2004;52.452;13.120;2022-07-23T21:27:40;1.87;;;1.00;;
3979;SDS011;2004;52.452;13.120;2022-07-23T21:35:32;3.27;;;1.30;;
3979;SDS011;2004;52.452;13.120;2022-07-23T21:43:22;3.07;;;1.27;;
3979;SDS011;2004;52.452;13.120;2022-07-23T21:51:13;5.23;;;1.40;;
3979;SDS011;2004;52.452;13.120;2022-07-23T21:59:04;1.57;;;1.17;;
3979;SDS011;2004;52.452;13.120;2022-07-23T22:06:54;3.00;;;1.20;;
3979;SDS011;2004;52.452;13.120;2022-07-23T22:14:45;2.67;;;1.10;;
3979;SDS011;2004;52.452;13.120;2022-07-23T22:22:39;3.67;;;1.50;;
3979;SDS011;2004;52.452;13.120;2022-07-23T22:30:34;2.50;;;1.00;;
3979;SDS011;2004;52.452;13.120;2022-07-23T22:38:24;1.00;;;0.90;;
3979;SDS011;2004;52.452;13.120;2022-07-23T22:46:15;2.73;;;1.00;;
3979;SDS011;2004;52.452;13.120;2022-07-23T22:54:07;2.97;;;1.67;;
3979;SDS011;2004;52.452;13.120;2022-07-23T23:01:57;2.40;;;1.10;;
3979;SDS011;2004;52.452;13.120;2022-07-23T23:09:48;1.53;;;1.10;;
3979;SDS011;2004;52.452;13.120;2022-07-23T23:17:39;2.33;;;1.60;;
3979;SDS011;2004;52.452;13.120;2022-07-23T23:25:30;2.20;;;1.60;;
3979;SDS011;2004;52.452;13.120;2022-07-23T23:33:21;1.20;;;1.00;;
3979;SDS011;2004;52.452;13.120;2022-07-23T23:41:12;2.80;;;1.13;;
3979;SDS011;2004;52.452;13.120;2022-07-23T23:49:02;4.93;;;1.47;;
3979;SDS011;2004;52.452;13.120;2022-07-23T23:56:53;2.70;;;1.20;;
